Terminal Aerodrome Forecast
Issued by NWS Corpus Christi, TX

Home | Current Version | Previous Version | Text Only | Print | Product List | Glossary On
Versions: 1 2 3 4 5 6 7 8 9 10 11 12 13 14 15 16 17
472
FTUS44 KCRP 241129
TAFCRP
TAF
KCRP 241129Z 2412/2512 VRB03KT P6SM SKC
      TEMPO 2412/2413 5SM BR
     FM241500 10009KT P6SM SKC
     FM242000 13014G18KT P6SM SCT250
     FM250200 15009KT P6SM SCT250
     FM250900 15005KT 6SM BR SCT010=

USA.gov is the U.S. government's official web portal to all federal, state and local government web resources and services.